createdAt,value
2016-02-07T00:00:50.983Z,4.85
2016-02-07T00:01:50.971Z,4.94
2016-02-07T00:02:51.005Z,4.82
2016-02-07T00:03:50.960Z,4.8
2016-02-07T00:04:50.963Z,4.91
2016-02-07T00:05:50.966Z,4.82
2016-02-07T00:06:50.984Z,4.84
2016-02-07T00:07:50.956Z,4.88
2016-02-07T00:08:50.961Z,4.84
2016-02-07T00:09:50.947Z,4.77
2016-02-07T00:10:50.966Z,4.84
2016-02-07T00:11:50.952Z,4.8
2016-02-07T00:12:50.940Z,4.73
2016-02-07T00:13:50.944Z,4.88
2016-02-07T00:14:50.946Z,4.82
2016-02-07T00:15:50.933Z,4.82
2016-02-07T00:16:50.924Z,4.89
2016-02-07T00:17:50.911Z,4.86
2016-02-07T00:18:50.929Z,4.8
2016-02-07T00:19:50.917Z,4.82
2016-02-07T00:20:50.903Z,4.88
2016-02-07T00:21:50.908Z,4.85
2016-02-07T00:22:50.911Z,4.88
2016-02-07T00:23:50.913Z,4.84
2016-02-07T00:24:50.887Z,4.88
2016-02-07T00:25:50.875Z,4.84
2016-02-07T00:26:50.893Z,4.96
2016-02-07T00:27:50.896Z,4.91
2016-02-07T00:28:50.883Z,4.99
2016-02-07T00:29:50.870Z,4.97
2016-02-07T00:30:50.863Z,4.97
2016-02-07T00:31:50.865Z,4.96
2016-02-07T00:32:50.869Z,4.92
2016-02-07T00:33:50.856Z,4.96
2016-02-07T00:34:50.860Z,4.97
2016-02-07T00:35:50.863Z,4.99
2016-02-07T00:36:50.850Z,4.94
2016-02-07T00:37:50.852Z,4.88
2016-02-07T00:38:50.855Z,4.85
2016-02-07T00:39:50.828Z,4.86
2016-02-07T00:40:50.847Z,4.94
2016-02-07T00:41:50.850Z,4.85
2016-02-07T00:42:50.823Z,4.8
2016-02-07T00:44:04.950Z,4.84
2016-02-07T00:44:50.810Z,4.8
2016-02-07T00:45:50.813Z,4.88
2016-02-07T00:46:50.800Z,4.82
2016-02-07T00:47:50.833Z,4.85
2016-02-07T00:48:50.789Z,4.86
2016-02-07T00:49:50.636Z,4.85
2016-02-07T00:50:50.794Z,4.85
2016-02-07T00:51:50.796Z,4.78
2016-02-07T00:52:50.754Z,4.8
2016-02-07T00:53:50.776Z,4.77
2016-02-07T00:54:50.763Z,4.8
2016-02-07T00:55:50.781Z,4.8
2016-02-07T00:56:50.815Z,4.77
2016-02-07T00:57:50.756Z,4.7
2016-02-07T00:58:50.742Z,4.69
2016-02-07T00:59:50.745Z,4.72
2016-02-07T01:00:50.748Z,4.65
2016-02-07T01:01:50.751Z,4.75
2016-02-07T01:02:50.770Z,4.66
2016-02-07T01:03:50.726Z,4.66
2016-02-07T01:04:50.729Z,4.7
2016-02-07T01:05:50.732Z,4.66
2016-02-07T01:06:50.735Z,4.72
2016-02-07T01:07:50.706Z,4.75
2016-02-07T01:08:50.728Z,4.73
2016-02-07T01:09:50.715Z,4.77
2016-02-07T01:10:50.702Z,4.69
2016-02-07T01:11:50.689Z,4.67
2016-02-07T01:12:50.692Z,4.75
2016-02-07T01:13:50.711Z,4.73
2016-02-07T01:14:50.729Z,4.7
2016-02-07T01:15:50.685Z,4.77
2016-02-07T01:16:50.689Z,4.72
2016-02-07T01:17:50.692Z,4.7
2016-02-07T01:18:50.695Z,4.7
2016-02-07T01:19:50.665Z,4.73
2016-02-07T01:20:50.684Z,4.67
2016-02-07T01:21:50.657Z,4.72
2016-02-07T01:22:50.659Z,4.66
2016-02-07T01:23:50.662Z,4.69
2016-02-07T01:24:50.649Z,4.72
2016-02-07T01:25:50.652Z,4.65
2016-02-07T01:26:50.654Z,4.69
2016-02-07T01:27:50.626Z,4.73
2016-02-07T01:28:50.628Z,4.73
2016-02-07T01:29:50.617Z,4.7
2016-02-07T01:30:50.619Z,4.72
2016-02-07T01:31:50.622Z,4.72
2016-02-07T01:32:50.624Z,4.75
2016-02-07T01:33:50.627Z,4.7
2016-02-07T01:34:50.598Z,4.75
2016-02-07T01:35:50.602Z,4.69
2016-02-07T01:36:50.588Z,4.69
2016-02-07T01:37:50.611Z,4.72
2016-02-07T01:38:50.597Z,4.8
2016-02-07T01:39:50.569Z,4.75
2016-02-07T01:40:50.603Z,4.84
2016-02-07T01:41:50.591Z,4.75
2016-02-07T01:42:50.577Z,4.8
2016-02-07T01:43:50.564Z,4.73
2016-02-07T01:44:50.566Z,4.77
2016-02-07T01:45:50.569Z,4.7
2016-02-07T01:46:50.557Z,4.78
2016-02-07T01:47:50.574Z,4.84
2016-02-07T01:48:50.546Z,4.77
2016-02-07T01:49:50.549Z,4.8
2016-02-07T01:50:50.397Z,4.77
2016-02-07T01:51:50.539Z,4.75
2016-02-07T01:52:50.542Z,4.84
2016-02-07T01:53:50.545Z,4.8
2016-02-07T01:54:50.517Z,4.8
2016-02-07T01:55:50.537Z,4.77
2016-02-07T01:56:50.540Z,4.77
2016-02-07T01:57:50.511Z,4.77
2016-02-07T01:58:50.515Z,4.73
2016-02-07T01:59:50.502Z,4.78
2016-02-07T02:00:50.505Z,4.78
2016-02-07T02:01:50.538Z,4.8
2016-02-07T02:02:50.494Z,4.77
2016-02-07T02:03:50.318Z,4.78
2016-02-07T02:04:50.464Z,4.77
2016-02-07T02:05:50.483Z,4.77
2016-02-07T02:06:50.423Z,4.82
2016-02-07T02:07:50.395Z,4.78
2016-02-07T02:08:50.404Z,4.72
2016-02-07T02:09:50.386Z,4.82
2016-02-07T02:10:50.368Z,4.8
2016-02-07T02:11:50.365Z,4.78
2016-02-07T02:12:50.393Z,4.82
2016-02-07T02:13:50.361Z,4.78
2016-02-07T02:14:50.347Z,4.77
2016-02-07T02:15:50.332Z,4.75
2016-02-07T02:16:50.317Z,4.8
2016-02-07T02:17:50.334Z,4.75
2016-02-07T02:18:50.335Z,4.75
2016-02-07T02:19:50.321Z,4.7
2016-02-07T02:20:50.292Z,4.67
2016-02-07T02:21:50.311Z,4.73
2016-02-07T02:22:50.313Z,4.73
2016-02-07T02:23:50.301Z,4.75
2016-02-07T02:24:50.274Z,4.72
2016-02-07T02:25:50.276Z,4.69
2016-02-07T02:26:50.265Z,4.72
2016-02-07T02:27:50.147Z,4.69
2016-02-07T02:28:50.311Z,4.78
2016-02-07T02:29:50.377Z,4.69
2016-02-07T02:30:51.176Z,4.69
2016-02-07T02:31:50.257Z,4.7
2016-02-07T02:32:50.259Z,4.73
2016-02-07T02:33:50.247Z,4.77
2016-02-07T02:34:50.281Z,4.7
2016-02-07T02:35:50.237Z,4.7
2016-02-07T02:36:50.254Z,4.69
2016-02-07T02:37:50.226Z,4.7
2016-02-07T02:38:50.214Z,4.7
2016-02-07T02:39:50.248Z,4.66
2016-02-07T02:40:50.234Z,4.66
2016-02-07T02:41:50.206Z,4.72
2016-02-07T02:42:50.208Z,4.72
2016-02-07T02:43:50.232Z,4.67
2016-02-07T02:44:50.234Z,4.66
2016-02-07T02:45:50.192Z,4.67
2016-02-07T02:46:50.053Z,4.63
2016-02-07T02:47:50.197Z,4.66
2016-02-07T02:48:50.200Z,4.63
2016-02-07T02:49:50.171Z,4.66
2016-02-07T02:50:50.174Z,4.63
2016-02-07T02:51:50.177Z,4.63
2016-02-07T02:52:50.192Z,4.59
2016-02-07T02:53:50.164Z,4.63
2016-02-07T02:54:50.150Z,4.66
2016-02-07T02:55:50.169Z,4.63
2016-02-07T02:56:50.171Z,4.52
2016-02-07T02:57:50.157Z,4.62
2016-02-07T02:58:50.132Z,4.54
2016-02-07T02:59:50.149Z,4.62
2016-02-07T03:00:50.152Z,4.52
2016-02-07T03:01:50.139Z,4.52
2016-02-07T03:02:50.174Z,4.59
2016-02-07T03:03:50.114Z,4.54
2016-02-07T03:04:50.122Z,4.62
2016-02-07T03:05:50.124Z,4.52
2016-02-07T03:06:50.112Z,4.54
2016-02-07T03:07:50.098Z,4.58
2016-02-07T03:08:50.102Z,4.69
2016-02-07T03:09:50.104Z,4.63
2016-02-07T03:10:50.092Z,4.67
2016-02-07T03:11:50.081Z,4.48
2016-02-07T03:12:50.084Z,4.62
2016-02-07T03:13:50.071Z,4.66
2016-02-07T03:14:50.074Z,4.6
2016-02-07T03:15:50.076Z,4.6
2016-02-07T03:16:50.079Z,4.62
2016-02-07T03:17:50.081Z,4.52
2016-02-07T03:18:50.054Z,4.52
2016-02-07T03:19:50.057Z,4.59
2016-02-07T03:20:50.076Z,4.6
2016-02-07T03:21:50.065Z,4.54
2016-02-07T03:22:50.052Z,4.59
2016-02-07T03:23:49.883Z,4.58
2016-02-07T03:24:50.042Z,4.55
2016-02-07T03:25:50.045Z,4.6
2016-02-07T03:26:50.032Z,4.6
2016-02-07T03:27:50.018Z,4.6
2016-02-07T03:28:50.006Z,4.55
2016-02-07T03:29:50.024Z,4.54
2016-02-07T03:30:50.042Z,4.6
2016-02-07T03:31:50.014Z,4.52
2016-02-07T03:32:50.004Z,4.62
2016-02-07T03:33:50.007Z,4.47
2016-02-07T03:34:49.993Z,4.54
2016-02-07T03:35:50.012Z,4.47
2016-02-07T03:36:49.983Z,4.47
2016-02-07T03:37:49.987Z,4.47
2016-02-07T03:38:49.989Z,4.48
2016-02-07T03:39:50.007Z,4.48
2016-02-07T03:40:49.979Z,4.5
2016-02-07T03:41:49.982Z,4.48
2016-02-07T03:42:49.970Z,4.47
2016-02-07T03:43:50.019Z,4.48
2016-02-07T03:44:49.943Z,4.45
2016-02-07T03:45:49.947Z,4.47
2016-02-07T03:46:49.949Z,4.51
2016-02-07T03:47:49.953Z,4.48
2016-02-07T03:48:49.955Z,4.44
2016-02-07T03:49:49.929Z,4.5
2016-02-07T03:50:49.931Z,4.37
2016-02-07T03:51:49.934Z,4.48
2016-02-07T03:52:49.921Z,4.5
2016-02-07T03:53:49.923Z,4.44
2016-02-07T03:54:49.911Z,4.52
2016-02-07T03:55:49.945Z,4.44
2016-02-07T03:56:49.900Z,4.45
2016-02-07T03:57:49.903Z,4.47
2016-02-07T03:58:49.906Z,4.41
2016-02-07T03:59:49.909Z,4.45
2016-02-07T04:00:49.896Z,4.45
2016-02-07T04:01:49.887Z,4.42
2016-02-07T04:02:49.873Z,4.47
2016-02-07T04:03:49.875Z,4.5
2016-02-07T04:04:49.878Z,4.44
2016-02-07T04:05:49.865Z,4.45
2016-02-07T04:06:49.853Z,4.51
2016-02-07T04:07:49.872Z,4.5
2016-02-07T04:08:49.874Z,4.5
2016-02-07T04:09:49.860Z,4.48
2016-02-07T04:10:49.832Z,4.44
2016-02-07T04:11:49.835Z,4.5
2016-02-07T04:12:49.838Z,4.45
2016-02-07T04:13:49.824Z,4.5
2016-02-07T04:14:49.827Z,4.47
2016-02-07T04:15:49.829Z,4.51
2016-02-07T04:16:49.849Z,4.45
2016-02-07T04:17:49.803Z,4.44
2016-02-07T04:18:49.806Z,4.47
2016-02-07T04:19:49.824Z,4.47
2016-02-07T04:20:49.827Z,4.5
2016-02-07T04:21:49.799Z,4.5
2016-02-07T04:22:49.802Z,4.47
2016-02-07T04:23:49.804Z,4.48
2016-02-07T04:24:49.792Z,4.48
2016-02-07T04:25:49.778Z,4.45
2016-02-07T04:26:49.798Z,4.45
2016-02-07T04:27:49.784Z,4.51
2016-02-07T04:28:49.771Z,4.45
2016-02-07T04:29:49.758Z,4.45
2016-02-07T04:30:49.761Z,4.48
2016-02-07T04:31:49.748Z,4.47
2016-02-07T04:32:49.734Z,4.45
2016-02-07T04:33:49.769Z,4.47
2016-02-07T04:34:49.740Z,4.48
2016-02-07T04:35:49.742Z,4.47
2016-02-07T04:36:49.736Z,4.45
2016-02-07T04:37:49.738Z,4.45
2016-02-07T04:38:49.724Z,4.45
2016-02-07T04:39:49.711Z,4.48
2016-02-07T04:40:49.730Z,4.44
2016-02-07T04:41:49.770Z,4.47
2016-02-07T04:42:49.711Z,4.54
2016-02-07T04:43:49.713Z,4.44
2016-02-07T04:44:49.716Z,4.45
2016-02-07T04:45:49.687Z,4.44
2016-02-07T04:46:49.695Z,4.5
2016-02-07T04:47:49.698Z,4.42
2016-02-07T04:48:49.700Z,4.48
2016-02-07T04:49:49.688Z,4.42
2016-02-07T04:50:49.675Z,4.36
2016-02-07T04:51:49.678Z,4.37
2016-02-07T04:52:49.680Z,4.33
2016-02-07T04:53:49.652Z,4.37
2016-02-07T04:54:49.654Z,4.34
2016-02-07T04:55:49.688Z,4.36
2016-02-07T04:56:49.678Z,4.36
2016-02-07T04:57:49.650Z,4.36
2016-02-07T04:58:49.636Z,4.34
2016-02-07T04:59:49.639Z,4.33
2016-02-07T05:00:49.642Z,4.34
2016-02-07T05:01:49.629Z,4.32
2016-02-07T05:02:49.633Z,4.36
2016-02-07T05:03:49.636Z,4.29
2016-02-07T05:04:49.622Z,4.24
2016-02-07T05:05:49.610Z,4.33
2016-02-07T05:06:49.613Z,4.27
2016-02-07T05:07:49.616Z,4.26
2016-02-07T05:08:49.603Z,4.32
2016-02-07T05:09:49.591Z,4.29
2016-02-07T05:10:49.610Z,4.3
2016-02-07T05:11:49.597Z,4.18
2016-02-07T05:12:49.584Z,4.24
2016-02-07T05:13:49.570Z,4.16
2016-02-07T05:14:49.589Z,4.2
2016-02-07T05:15:49.579Z,4.2
2016-02-07T05:16:49.559Z,4.22
2016-02-07T05:17:49.561Z,4.16
2016-02-07T05:18:49.580Z,4.2
2016-02-07T05:19:49.552Z,4.14
2016-02-07T05:20:49.555Z,4.08
2016-02-07T05:21:49.541Z,4.06
2016-02-07T05:22:49.560Z,4.14
2016-02-07T05:23:49.532Z,4.12
2016-02-07T05:24:49.520Z,4.06
2016-02-07T05:25:49.538Z,4.12
2016-02-07T05:26:49.541Z,4
2016-02-07T05:27:49.527Z,4
2016-02-07T05:28:49.514Z,4.08
2016-02-07T05:29:49.516Z,4.04
2016-02-07T05:30:49.505Z,3.98
2016-02-07T05:31:49.491Z,4.09
2016-02-07T05:32:49.494Z,4
2016-02-07T05:33:49.513Z,4.06
2016-02-07T05:34:49.483Z,4.08
2016-02-07T05:35:49.533Z,4.04
2016-02-07T05:36:49.678Z,4.04
2016-02-07T05:37:49.492Z,4.09
2016-02-07T05:38:49.464Z,3.98
2016-02-07T05:39:49.482Z,4.04
2016-02-07T05:40:49.469Z,4.09
2016-02-07T05:41:49.461Z,3.98
2016-02-07T05:42:49.448Z,4.09
2016-02-07T05:43:49.435Z,4.14
2016-02-07T05:44:49.456Z,4.14
2016-02-07T05:45:49.458Z,4.11
2016-02-07T05:46:49.445Z,4.14
2016-02-07T05:47:49.433Z,4.14
2016-02-07T05:48:49.419Z,4.16
2016-02-07T05:49:49.440Z,4.14
2016-02-07T05:50:49.412Z,4.15
2016-02-07T05:51:49.414Z,4.15
2016-02-07T05:52:49.401Z,4.22
2016-02-07T05:53:49.405Z,4.18
2016-02-07T05:54:49.407Z,4.15
2016-02-07T05:55:49.410Z,4.12
2016-02-07T05:56:49.396Z,4.11
2016-02-07T05:57:49.400Z,4.15
2016-02-07T05:58:49.403Z,4.11
2016-02-07T05:59:49.375Z,4.12
2016-02-07T06:00:49.377Z,4.12
2016-02-07T06:01:49.380Z,4.15
2016-02-07T06:02:49.398Z,4.16
2016-02-07T06:03:49.355Z,4.08
2016-02-07T06:04:49.373Z,4.12
2016-02-07T06:05:49.345Z,4.12
2016-02-07T06:06:49.336Z,4.15
2016-02-07T06:07:49.339Z,4.12
2016-02-07T06:08:49.498Z,4.12
2016-02-07T06:09:49.861Z,4
2016-02-07T06:10:49.320Z,4
2016-02-07T06:11:49.338Z,4.02
2016-02-07T06:12:50.997Z,4
2016-02-07T06:13:49.312Z,4.04
2016-02-07T06:14:50.410Z,4.11
2016-02-07T06:15:50.553Z,4.04
2016-02-07T06:16:49.368Z,4.12
2016-02-07T06:17:49.308Z,4.12
2016-02-07T06:18:49.295Z,4
2016-02-07T06:19:49.298Z,4.06
2016-02-07T06:20:49.285Z,4.02
2016-02-07T06:21:49.273Z,4
2016-02-07T06:22:49.275Z,3.98
2016-02-07T06:23:49.278Z,4.05
2016-02-07T06:24:49.265Z,4.05
2016-02-07T06:25:49.251Z,4.02
2016-02-07T06:26:49.332Z,4
2016-02-07T06:27:49.398Z,4.02
2016-02-07T06:28:50.667Z,4
2016-02-07T06:29:49.497Z,4.04
2016-02-07T06:30:49.797Z,4.02
2016-02-07T06:31:51.643Z,4
2016-02-07T06:32:49.240Z,3.97
2016-02-07T06:33:49.212Z,4.08
2016-02-07T06:34:49.496Z,3.96
2016-02-07T06:35:49.467Z,3.94
2016-02-07T06:36:49.237Z,4.02
2016-02-07T06:37:49.224Z,3.98
2016-02-07T06:38:49.227Z,4
2016-02-07T06:39:49.183Z,4.04
2016-02-07T06:40:49.186Z,4.04
2016-02-07T06:41:49.204Z,4
2016-02-07T06:42:49.207Z,4.02
2016-02-07T06:43:49.179Z,4.02
2016-02-07T06:44:49.168Z,4.05
2016-02-07T06:45:49.201Z,3.98
2016-02-07T06:46:49.188Z,4.02
2016-02-07T06:48:49.162Z,4.05
2016-02-07T06:49:49.150Z,4.12
2016-02-07T06:50:49.169Z,4
2016-02-07T06:51:49.562Z,3.94
2016-02-07T06:52:49.128Z,4.12
2016-02-07T06:53:49.131Z,4.06
2016-02-07T06:54:49.133Z,4.08
2016-02-07T06:55:49.152Z,3.98
2016-02-07T06:56:49.123Z,4.09
2016-02-07T06:57:49.111Z,4.16
2016-02-07T06:58:49.129Z,4.14
2016-02-07T06:59:49.132Z,4.16
2016-02-07T07:00:49.134Z,4.12
2016-02-07T07:01:49.106Z,4.22
2016-02-07T07:02:49.109Z,4.12
2016-02-07T07:03:49.097Z,4.16
2016-02-07T07:04:49.088Z,4.18
2016-02-07T07:05:49.076Z,4.15
2016-02-07T07:06:49.079Z,4.14
2016-02-07T07:07:49.082Z,4.11
2016-02-07T07:08:49.068Z,4.15
2016-02-07T07:09:49.087Z,4.24
2016-02-07T07:10:49.075Z,4.18
2016-02-07T07:11:49.078Z,4.16
2016-02-07T07:12:49.065Z,4.12
2016-02-07T07:13:49.068Z,4.18
2016-02-07T07:14:49.054Z,4.2
2016-02-07T07:15:49.063Z,4.27
2016-02-07T07:16:49.034Z,4.16
2016-02-07T07:17:49.037Z,4.23
2016-02-07T07:18:49.043Z,4.26
2016-02-07T07:19:49.046Z,4.3
2016-02-07T07:20:49.032Z,4.32
2016-02-07T07:21:49.020Z,4.29
2016-02-07T07:22:49.006Z,4.23
2016-02-07T07:23:49.009Z,4.27
2016-02-07T07:24:49.031Z,4.26
2016-02-07T07:25:49.034Z,4.41
2016-02-07T07:26:49.006Z,4.4
2016-02-07T07:27:48.995Z,4.36
2016-02-07T07:28:48.996Z,4.3
2016-02-07T07:29:49.015Z,4.27
2016-02-07T07:30:48.986Z,4.3
2016-02-07T07:31:48.977Z,4.41
2016-02-07T07:32:48.965Z,4.44
2016-02-07T07:33:48.983Z,4.48
2016-02-07T07:34:48.985Z,4.48
2016-02-07T07:35:48.847Z,4.47
2016-02-07T07:36:48.960Z,4.47
2016-02-07T07:37:49.259Z,4.47
2016-02-07T07:38:48.965Z,4.44
2016-02-07T07:39:48.969Z,4.47
2016-02-07T07:40:48.940Z,4.5
2016-02-07T07:41:48.943Z,4.54
2016-02-07T07:42:48.946Z,4.59
2016-02-07T07:43:48.932Z,4.52
2016-02-07T07:44:48.935Z,4.54
2016-02-07T07:45:48.943Z,4.55
2016-02-07T07:46:48.954Z,4.6
2016-02-07T07:47:48.924Z,4.63
2016-02-07T07:48:48.927Z,4.63
2016-02-07T07:49:48.946Z,4.67
2016-02-07T07:50:48.917Z,4.73
2016-02-07T07:51:48.904Z,4.77
2016-02-07T07:52:48.924Z,4.78
2016-02-07T07:53:48.895Z,4.72
2016-02-07T07:54:48.898Z,4.73
2016-02-07T07:55:48.978Z,4.75
2016-02-07T07:56:48.904Z,4.82
2016-02-07T07:57:48.890Z,4.88
2016-02-07T07:58:48.876Z,4.88
2016-02-07T07:59:48.879Z,5
2016-02-07T08:00:48.883Z,4.8
2016-02-07T08:01:48.886Z,4.97
2016-02-07T08:02:48.874Z,4.92
2016-02-07T08:03:48.719Z,4.97
2016-02-07T08:04:48.879Z,4.96
2016-02-07T08:05:48.865Z,4.94
2016-02-07T08:06:48.854Z,4.96
2016-02-07T08:07:48.856Z,4.97
2016-02-07T08:08:48.843Z,4.89
2016-02-07T08:09:48.846Z,5.03
2016-02-07T08:10:48.832Z,5.03
2016-02-07T08:11:48.899Z,5
2016-02-07T08:12:48.855Z,5.09
2016-02-07T08:13:48.826Z,5.04
2016-02-07T08:14:48.832Z,5.09
2016-02-07T08:15:48.837Z,5.13
2016-02-07T08:16:48.824Z,5.18
2016-02-07T08:17:48.827Z,5.18
2016-02-07T08:18:48.829Z,5.2
2016-02-07T08:19:48.818Z,5.2
2016-02-07T08:20:48.821Z,5.31
2016-02-07T08:21:48.808Z,5.28
2016-02-07T08:22:48.826Z,5.31
2016-02-07T08:23:48.813Z,5.36
2016-02-07T08:24:48.800Z,5.35
2016-02-07T08:25:48.804Z,5.31
2016-02-07T08:26:48.806Z,5.4
2016-02-07T08:27:48.812Z,5.36
2016-02-07T08:28:48.798Z,5.45
2016-02-07T08:29:48.786Z,5.53
2016-02-07T08:30:49.116Z,5.48
2016-02-07T08:31:48.807Z,5.48
2016-02-07T08:32:48.779Z,5.56
2016-02-07T08:33:48.766Z,5.61
2016-02-07T08:34:48.815Z,5.57
2016-02-07T08:35:48.772Z,5.58
2016-02-07T08:36:48.760Z,5.57
2016-02-07T08:37:48.778Z,5.6
2016-02-07T08:38:48.765Z,5.56
2016-02-07T08:39:48.830Z,5.58
2016-02-07T08:40:48.757Z,5.61
2016-02-07T08:41:48.761Z,5.71
2016-02-07T08:42:48.779Z,5.72
2016-02-07T08:43:48.749Z,5.67
2016-02-07T08:44:48.752Z,5.72
2016-02-07T08:45:48.775Z,5.68
2016-02-07T08:46:48.766Z,5.74
2016-02-07T08:47:48.738Z,5.64
2016-02-07T08:48:48.755Z,5.76
2016-02-07T08:49:48.727Z,5.71
2016-02-07T08:50:48.808Z,5.72
2016-02-07T08:51:48.826Z,5.74
2016-02-07T08:52:48.751Z,5.72
2016-02-07T08:53:48.739Z,5.79
2016-02-07T08:54:48.866Z,5.74
2016-02-07T08:55:48.744Z,5.79
2016-02-07T08:56:48.751Z,5.76
2016-02-07T08:57:48.722Z,5.82
2016-02-07T08:58:48.709Z,5.79
2016-02-07T08:59:48.711Z,5.85
2016-02-07T09:00:48.730Z,5.83
2016-02-07T09:01:48.715Z,5.86
2016-02-07T09:02:48.812Z,5.89
2016-02-07T09:03:48.534Z,5.93
2016-02-07T09:04:48.912Z,5.93
2016-02-07T09:05:48.695Z,6
2016-02-07T09:06:49.120Z,5.96
2016-02-07T09:07:48.700Z,5.97
2016-02-07T09:08:48.687Z,6.06
2016-02-07T09:09:48.689Z,6.03
2016-02-07T09:10:48.693Z,6.14
2016-02-07T09:11:48.695Z,6.11
2016-02-07T09:12:48.698Z,6.18
2016-02-07T09:13:48.700Z,6.11
2016-02-07T09:14:48.675Z,6.15
2016-02-07T09:15:48.694Z,6.17
2016-02-07T09:16:48.681Z,6.28
2016-02-07T09:17:48.685Z,6.21
2016-02-07T09:18:48.751Z,6.18
2016-02-07T09:19:48.659Z,6.22
2016-02-07T09:20:48.746Z,6.22
2016-02-07T09:21:48.717Z,6.18
2016-02-07T09:22:48.659Z,6.19
2016-02-07T09:23:48.661Z,6.37
2016-02-07T09:24:48.664Z,6.3
2016-02-07T09:25:48.667Z,6.33
2016-02-07T09:26:48.670Z,6.37
2016-02-07T09:27:48.660Z,6.43
2016-02-07T09:28:48.648Z,6.43
2016-02-07T09:29:48.666Z,6.38
2016-02-07T09:30:48.653Z,6.37
2016-02-07T09:31:48.656Z,6.4
2016-02-07T09:32:48.799Z,6.54
2016-02-07T09:33:48.711Z,6.46
2016-02-07T09:34:49.386Z,6.48
2016-02-07T09:35:48.628Z,6.55
2016-02-07T09:36:48.927Z,6.56
2016-02-07T09:37:48.648Z,6.58
2016-02-07T09:38:48.666Z,6.52
2016-02-07T09:39:48.747Z,6.59
2016-02-07T09:40:48.688Z,6.7
2016-02-07T09:41:48.722Z,6.61
2016-02-07T09:42:48.630Z,6.7
2016-02-07T09:43:48.650Z,6.66
2016-02-07T09:44:48.636Z,6.71
2016-02-07T09:45:48.656Z,6.73
2016-02-07T09:46:48.626Z,6.73
2016-02-07T09:47:48.629Z,6.8
2016-02-07T09:48:48.634Z,6.79
2016-02-07T09:49:48.654Z,6.81
2016-02-07T09:50:48.625Z,6.81
2016-02-07T09:51:48.674Z,6.76
2016-02-07T09:52:48.630Z,6.74
2016-02-07T09:53:48.617Z,6.88
2016-02-07T09:54:48.728Z,6.79
2016-02-07T09:55:48.653Z,6.91
2016-02-07T09:56:48.657Z,6.77
2016-02-07T09:57:48.785Z,6.8
2016-02-07T09:58:48.023Z,6.89
2016-02-07T09:59:48.619Z,6.79
2016-02-07T10:00:48.653Z,6.92
2016-02-07T10:01:48.623Z,6.84
2016-02-07T10:02:48.613Z,6.74
2016-02-07T10:03:48.615Z,6.8
2016-02-07T10:04:48.603Z,6.79
2016-02-07T10:05:48.606Z,6.8
2016-02-07T10:06:48.608Z,6.8
2016-02-07T10:07:48.594Z,6.87
2016-02-07T10:08:48.597Z,6.79
2016-02-07T10:09:48.600Z,6.77
2016-02-07T10:10:48.604Z,6.81
2016-02-07T10:12:48.641Z,6.81
2016-02-07T10:13:48.893Z,6.87
2016-02-07T10:14:48.600Z,6.8
2016-02-07T10:15:48.602Z,6.77
2016-02-07T10:16:48.605Z,6.8
2016-02-07T10:17:48.608Z,6.79
2016-02-07T10:18:48.596Z,6.77
2016-02-07T10:19:48.606Z,6.74
2016-02-07T10:20:48.641Z,6.77
2016-02-07T10:21:48.613Z,6.76
2016-02-07T10:22:48.584Z,6.74
2016-02-07T10:23:48.621Z,6.81
2016-02-07T10:24:48.608Z,6.89
2016-02-07T10:25:48.596Z,6.81
2016-02-07T10:26:48.583Z,6.89
2016-02-07T10:27:48.601Z,6.88
2016-02-07T10:28:48.589Z,6.91
2016-02-07T10:29:48.592Z,6.81
2016-02-07T10:30:48.594Z,6.85
2016-02-07T10:31:48.598Z,6.94
2016-02-07T10:32:48.585Z,6.98
2016-02-07T10:33:48.587Z,6.95
2016-02-07T10:34:48.607Z,6.95
2016-02-07T10:35:48.593Z,6.97
2016-02-07T10:36:48.799Z,6.97
2016-02-07T10:37:48.615Z,6.97
2016-02-07T10:38:48.572Z,6.98
2016-02-07T10:39:48.609Z,6.94
2016-02-07T10:40:48.628Z,6.97
2016-02-07T10:41:48.567Z,7.07
2016-02-07T10:42:48.569Z,7.07
2016-02-07T10:43:48.573Z,7.05
2016-02-07T10:44:48.592Z,7.06
2016-02-07T10:45:48.579Z,7.03
2016-02-07T10:46:48.582Z,7.15
2016-02-07T10:47:48.584Z,7.09
2016-02-07T10:48:48.572Z,7.13
2016-02-07T10:49:48.575Z,7.1
2016-02-07T10:50:48.580Z,7.12
2016-02-07T10:51:48.583Z,7.16
2016-02-07T10:52:48.588Z,7.15
2016-02-07T10:53:48.559Z,7.15
2016-02-07T10:54:48.562Z,7.23
2016-02-07T10:55:48.659Z,7.12
2016-02-07T10:56:48.567Z,7.21
2016-02-07T10:57:48.556Z,7.16
2016-02-07T10:58:48.558Z,7.17
2016-02-07T10:59:48.562Z,7.28
2016-02-07T11:00:48.610Z,7.27
2016-02-07T11:01:48.551Z,7.15
2016-02-07T11:02:48.553Z,7.27
2016-02-07T11:03:48.556Z,7.23
2016-02-07T11:04:48.559Z,7.25
2016-02-07T11:05:48.579Z,7.21
2016-02-07T11:06:48.549Z,7.28
2016-02-07T11:07:48.552Z,7.21
2016-02-07T11:08:48.554Z,7.24
2016-02-07T11:09:48.563Z,7.25
2016-02-07T11:10:48.538Z,7.35
2016-02-07T11:11:48.513Z,7.37
2016-02-07T11:12:48.502Z,7.35
2016-02-07T11:13:48.493Z,7.34
2016-02-07T11:14:48.506Z,7.34
2016-02-07T11:15:48.489Z,7.37
2016-02-07T11:16:48.471Z,7.4
2016-02-07T11:17:48.469Z,7.5
2016-02-07T11:18:48.470Z,7.34
2016-02-07T11:19:48.487Z,7.45
2016-02-07T11:20:48.475Z,7.5
2016-02-07T11:21:48.461Z,7.53
2016-02-07T11:22:48.447Z,7.52
2016-02-07T11:23:48.464Z,7.57
2016-02-07T11:24:48.512Z,7.53
2016-02-07T11:25:48.811Z,7.5
2016-02-07T11:26:48.517Z,7.5
2016-02-07T11:27:48.457Z,7.61
2016-02-07T11:28:49.286Z,7.57
2016-02-07T11:29:48.445Z,7.55
2016-02-07T11:30:48.448Z,7.57
2016-02-07T11:31:48.450Z,7.55
2016-02-07T11:32:48.452Z,7.58
2016-02-07T11:33:48.454Z,7.57
2016-02-07T11:34:48.458Z,7.57
2016-02-07T11:35:48.461Z,7.6
2016-02-07T11:36:48.432Z,7.64
2016-02-07T11:37:48.450Z,7.67
2016-02-07T11:38:48.452Z,7.68
2016-02-07T11:39:48.457Z,7.61
2016-02-07T11:40:48.460Z,7.64
2016-02-07T11:41:48.447Z,7.74
2016-02-07T11:42:48.450Z,7.68
2016-02-07T11:43:48.453Z,7.77
2016-02-07T11:44:48.439Z,7.85
2016-02-07T11:45:48.459Z,7.83
2016-02-07T11:46:48.445Z,7.9
2016-02-07T11:47:48.448Z,7.87
2016-02-07T11:48:48.450Z,7.85
2016-02-07T11:49:48.453Z,7.86
2016-02-07T11:50:48.440Z,7.86
2016-02-07T11:51:48.443Z,7.85
2016-02-07T11:52:48.447Z,7.87
2016-02-07T11:53:48.450Z,7.95
2016-02-07T11:54:48.438Z,8.05
2016-02-07T11:55:48.455Z,8.01
2016-02-07T11:56:48.443Z,8.02
2016-02-07T11:57:48.445Z,8.04
2016-02-07T11:58:48.463Z,8.05
2016-02-07T11:59:48.452Z,8.02
2016-02-07T12:00:48.439Z,8.05
2016-02-07T12:01:48.457Z,8.05
2016-02-07T12:02:48.444Z,8.01
2016-02-07T12:03:48.477Z,8.15
2016-02-07T12:04:48.466Z,8.02
2016-02-07T12:05:48.483Z,8.15
2016-02-07T12:06:48.444Z,8.05
2016-02-07T12:07:48.462Z,8.18
2016-02-07T12:08:48.450Z,8.23
2016-02-07T12:09:48.843Z,8.23
2016-02-07T12:10:48.548Z,8.25
2016-02-07T12:11:48.551Z,8.26
2016-02-07T12:12:48.476Z,8.25
2016-02-07T12:13:48.448Z,8.33
2016-02-07T12:14:48.452Z,8.2
2016-02-07T12:15:48.469Z,8.3
2016-02-07T12:16:48.472Z,8.34
2016-02-07T12:17:48.459Z,8.29
2016-02-07T12:18:48.463Z,8.3
2016-02-07T12:19:48.480Z,8.28
2016-02-07T12:20:48.467Z,8.29
2016-02-07T12:21:48.470Z,8.2
2016-02-07T12:22:48.457Z,8.37
2016-02-07T12:23:48.472Z,8.29
2016-02-07T12:24:48.491Z,8.33
2016-02-07T12:25:48.666Z,8.36
2016-02-07T12:26:48.450Z,8.36
2016-02-07T12:27:48.469Z,8.33
2016-02-07T12:28:48.472Z,8.3
2016-02-07T12:29:48.491Z,8.28
2016-02-07T12:30:48.461Z,8.33
2016-02-07T12:31:47.761Z,8.25
2016-02-07T12:32:48.468Z,8.29
2016-02-07T12:33:48.471Z,8.41
2016-02-07T12:34:48.490Z,8.38
2016-02-07T12:35:48.761Z,8.34
2016-02-07T12:36:48.481Z,8.34
2016-02-07T12:37:48.485Z,8.44
2016-02-07T12:38:48.503Z,8.47
2016-02-07T12:39:48.475Z,8.41
2016-02-07T12:40:48.712Z,8.3
2016-02-07T12:41:48.512Z,8.43
2016-02-07T12:42:48.531Z,8.37
2016-02-07T12:43:49.064Z,8.52
2016-02-07T12:44:48.942Z,8.47
2016-02-07T12:45:48.789Z,8.45
2016-02-07T12:46:48.776Z,8.4
2016-02-07T12:47:48.684Z,8.41
2016-02-07T12:48:48.641Z,8.44
2016-02-07T12:49:48.956Z,8.44
2016-02-07T12:50:48.757Z,8.5
2016-02-07T12:51:48.618Z,8.47
2016-02-07T12:52:48.480Z,8.5
2016-02-07T12:53:48.408Z,8.58
2016-02-07T12:54:48.505Z,8.5
2016-02-07T12:55:48.507Z,8.53
2016-02-07T12:56:48.482Z,8.53
2016-02-07T12:57:48.484Z,8.53
2016-02-07T12:58:48.502Z,8.5
2016-02-07T12:59:48.536Z,8.52
2016-02-07T13:00:48.570Z,8.55
2016-02-07T13:01:48.543Z,8.53
2016-02-07T13:02:48.499Z,8.52
2016-02-07T13:03:48.517Z,8.55
2016-02-07T13:04:48.504Z,8.59
2016-02-07T13:05:48.507Z,8.52
2016-02-07T13:06:48.509Z,8.52
2016-02-07T13:07:48.543Z,8.59
2016-02-07T13:08:48.515Z,8.48
2016-02-07T13:09:48.532Z,8.53
2016-02-07T13:10:48.535Z,8.47
2016-02-07T13:11:48.554Z,8.4
2016-02-07T13:12:48.540Z,8.45
2016-02-07T13:13:48.512Z,8.47
2016-02-07T13:14:48.531Z,8.44
2016-02-07T13:15:48.565Z,8.41
2016-02-07T13:16:48.520Z,8.34
2016-02-07T13:17:48.523Z,8.36
2016-02-07T13:18:48.526Z,8.33
2016-02-07T13:19:48.529Z,8.29
2016-02-07T13:20:48.531Z,8.18
2016-02-07T13:21:48.518Z,8.23
2016-02-07T13:22:48.521Z,8.22
2016-02-07T13:23:48.527Z,8.18
2016-02-07T13:24:48.562Z,8.25
2016-02-07T13:25:48.536Z,8.25